createdAt,value
2023-05-17T00:01:05.414Z,1.20
2023-05-17T00:03:34.331Z,1.30
2023-05-17T00:06:01.863Z,1.97
2023-05-17T00:08:29.676Z,1.73
2023-05-17T00:10:57.203Z,1.53
2023-05-17T00:13:24.725Z,1.80
2023-05-17T00:15:52.226Z,1.20
2023-05-17T00:18:19.758Z,1.87
2023-05-17T00:20:48.678Z,2.00
2023-05-17T00:23:16.191Z,2.07
2023-05-17T00:25:43.683Z,1.77
2023-05-17T00:28:11.195Z,2.20
2023-05-17T00:30:38.756Z,1.90
2023-05-17T00:33:06.331Z,2.07
2023-05-17T00:35:33.978Z,1.83
2023-05-17T00:38:03.068Z,1.83
2023-05-17T00:40:30.626Z,2.07
2023-05-17T00:42:58.182Z,1.87
2023-05-17T00:45:25.968Z,1.63
2023-05-17T00:47:53.629Z,1.83
2023-05-17T00:50:21.367Z,1.60
2023-05-17T00:52:48.915Z,1.40
2023-05-17T00:55:19.686Z,1.90
2023-05-17T00:57:47.317Z,1.50
2023-05-17T01:00:15.564Z,1.77
2023-05-17T01:02:44.506Z,1.70
2023-05-17T01:05:12.072Z,1.57
2023-05-17T01:07:40.156Z,1.47
2023-05-17T01:10:09.378Z,1.60
2023-05-17T01:12:47.929Z,2.53
2023-05-17T01:15:17.099Z,1.83
2023-05-17T01:17:51.752Z,2.03
2023-05-17T01:20:22.532Z,1.83
2023-05-17T01:22:53.324Z,2.17
2023-05-17T01:25:37.513Z,1.70
2023-05-17T01:28:07.299Z,1.47
2023-05-17T01:30:35.760Z,1.60
2023-05-17T01:33:04.269Z,1.90
2023-05-17T01:35:31.900Z,2.00
2023-05-17T01:38:00.438Z,1.60
2023-05-17T01:40:30.250Z,1.80
2023-05-17T01:43:06.206Z,1.77
2023-05-17T01:45:38.955Z,1.90
2023-05-17T01:48:14.107Z,2.00
2023-05-17T01:50:42.155Z,1.90
2023-05-17T01:53:12.114Z,1.83
2023-05-17T01:55:44.081Z,2.13
2023-05-17T01:58:12.735Z,1.93
2023-05-17T02:00:44.770Z,1.80
2023-05-17T02:03:14.279Z,2.20
2023-05-17T02:05:42.102Z,2.50
2023-05-17T02:08:09.631Z,1.53
2023-05-17T02:10:37.236Z,1.40
2023-05-17T02:13:04.958Z,1.70
2023-05-17T02:15:32.901Z,1.83
2023-05-17T02:18:01.906Z,2.17
2023-05-17T02:20:29.553Z,2.40
2023-05-17T02:22:57.107Z,1.90
2023-05-17T02:25:24.608Z,2.20
2023-05-17T02:27:52.121Z,2.27
2023-05-17T02:30:22.150Z,2.07
2023-05-17T02:32:50.075Z,2.07
2023-05-17T02:35:19.107Z,2.40
2023-05-17T02:37:46.646Z,2.60
2023-05-17T02:40:14.587Z,2.17
2023-05-17T02:42:42.081Z,2.60
2023-05-17T02:45:10.049Z,1.90
2023-05-17T02:47:37.677Z,2.10
2023-05-17T02:50:06.301Z,1.90
2023-05-17T02:52:35.379Z,2.23
2023-05-17T02:55:03.549Z,2.70
2023-05-17T02:57:31.033Z,2.13
2023-05-17T02:59:58.803Z,2.27
2023-05-17T03:02:27.005Z,2.03
2023-05-17T03:04:54.664Z,2.00
2023-05-17T03:07:22.210Z,2.13
2023-05-17T03:09:51.064Z,2.17
2023-05-17T03:12:18.663Z,1.90
2023-05-17T03:14:46.168Z,2.57
2023-05-17T03:17:13.675Z,1.90
2023-05-17T03:19:41.316Z,2.87
2023-05-17T03:22:08.878Z,2.27
2023-05-17T03:24:36.427Z,2.10
2023-05-17T03:27:05.744Z,2.23
2023-05-17T03:29:33.312Z,2.23
2023-05-17T03:32:00.894Z,3.10
2023-05-17T03:34:28.441Z,2.50
2023-05-17T03:36:55.926Z,2.40
2023-05-17T03:39:23.460Z,2.60
2023-05-17T03:41:51.848Z,2.13
2023-05-17T03:44:20.697Z,2.30
2023-05-17T03:46:48.173Z,2.00
2023-05-17T03:49:15.754Z,2.70
2023-05-17T03:51:43.358Z,2.20
2023-05-17T03:54:11.110Z,3.00
2023-05-17T03:56:38.677Z,2.23
2023-05-17T03:59:06.239Z,2.77
2023-05-17T04:01:35.317Z,2.30
2023-05-17T04:04:04.469Z,2.10
2023-05-17T04:06:32.147Z,2.70
2023-05-17T04:08:59.892Z,2.20
2023-05-17T04:11:27.797Z,3.10
2023-05-17T04:13:56.772Z,3.57
2023-05-17T04:16:24.370Z,2.93
2023-05-17T04:18:54.170Z,2.83
2023-05-17T04:21:22.219Z,2.67
2023-05-17T04:23:49.799Z,2.80
2023-05-17T04:26:17.377Z,2.30
2023-05-17T04:28:45.001Z,2.80
2023-05-17T04:31:16.622Z,2.73
2023-05-17T04:33:44.332Z,3.17
2023-05-17T04:36:13.240Z,3.20
2023-05-17T04:38:40.963Z,2.90
2023-05-17T04:41:09.363Z,2.53
2023-05-17T04:43:37.155Z,3.07
2023-05-17T04:46:05.506Z,2.80
2023-05-17T04:48:33.404Z,2.93
2023-05-17T04:51:01.972Z,2.53
2023-05-17T04:53:31.282Z,2.60
2023-05-17T04:55:58.827Z,2.33
2023-05-17T04:58:26.751Z,3.17
2023-05-17T05:00:54.234Z,2.60
2023-05-17T05:03:23.563Z,2.90
2023-05-17T05:05:51.137Z,2.37
2023-05-17T05:08:18.683Z,3.53
2023-05-17T05:10:47.566Z,2.90
2023-05-17T05:13:15.099Z,2.87
2023-05-17T05:15:42.617Z,2.83
2023-05-17T05:18:10.219Z,3.33
2023-05-17T05:20:37.883Z,3.13
2023-05-17T05:23:06.051Z,3.00
2023-05-17T05:25:34.131Z,3.37
2023-05-17T05:28:03.046Z,3.70
2023-05-17T05:30:30.598Z,3.30
2023-05-17T05:32:58.248Z,3.50
2023-05-17T05:35:30.169Z,2.83
2023-05-17T05:37:58.499Z,3.03
2023-05-17T05:40:26.223Z,3.30
2023-05-17T05:42:54.132Z,2.87
2023-05-17T05:45:23.179Z,2.40
2023-05-17T05:47:50.996Z,2.77
2023-05-17T05:50:18.610Z,2.90
2023-05-17T05:52:46.183Z,3.40
2023-05-17T05:55:13.853Z,2.20
2023-05-17T05:57:41.331Z,3.00
2023-05-17T06:00:11.944Z,2.80
2023-05-17T06:02:41.232Z,3.07
2023-05-17T06:05:09.658Z,3.27
2023-05-17T06:07:37.146Z,2.57
2023-05-17T06:10:04.905Z,3.47
2023-05-17T06:12:32.462Z,3.40
2023-05-17T06:14:59.976Z,3.07
2023-05-17T06:17:27.535Z,2.83
2023-05-17T06:19:56.511Z,3.20
2023-05-17T06:22:24.096Z,3.50
2023-05-17T06:24:51.852Z,3.63
2023-05-17T06:27:21.643Z,3.00
2023-05-17T06:29:49.251Z,2.80
2023-05-17T06:32:16.853Z,2.30
2023-05-17T06:34:44.425Z,2.33
2023-05-17T06:37:13.298Z,3.03
2023-05-17T06:39:41.138Z,3.23
2023-05-17T06:42:08.733Z,2.03
2023-05-17T06:44:36.238Z,3.07
2023-05-17T06:47:03.886Z,2.80
2023-05-17T06:49:31.445Z,3.13
2023-05-17T06:52:03.232Z,2.50
2023-05-17T06:54:32.215Z,2.80
2023-05-17T06:57:01.266Z,2.50
2023-05-17T06:59:28.844Z,2.80
2023-05-17T07:01:56.434Z,2.80
2023-05-17T07:04:24.296Z,2.60
2023-05-17T07:06:51.913Z,2.73
2023-05-17T07:09:24.224Z,2.93
2023-05-17T07:11:53.166Z,2.43
2023-05-17T07:14:20.856Z,2.47
2023-05-17T07:16:49.297Z,2.30
2023-05-17T07:19:17.029Z,2.23
2023-05-17T07:21:44.652Z,1.57
2023-05-17T07:24:12.281Z,1.30
2023-05-17T07:26:39.819Z,1.40
2023-05-17T07:29:10.917Z,1.47
2023-05-17T07:31:38.531Z,1.30
2023-05-17T07:34:06.161Z,1.70
2023-05-17T07:36:33.874Z,2.30
2023-05-17T07:39:01.406Z,2.00
2023-05-17T07:41:28.967Z,2.00
2023-05-17T07:43:56.585Z,1.80
2023-05-17T07:46:25.423Z,2.50
2023-05-17T07:48:54.450Z,1.73
2023-05-17T07:51:23.330Z,2.23
2023-05-17T07:53:51.009Z,1.47
2023-05-17T07:56:18.576Z,1.00
2023-05-17T07:58:46.108Z,1.60
2023-05-17T08:01:13.669Z,1.43
2023-05-17T08:03:47.974Z,1.57
2023-05-17T08:06:16.629Z,1.70
2023-05-17T08:08:44.554Z,1.90
2023-05-17T08:11:13.126Z,1.63
2023-05-17T08:13:41.061Z,1.67
2023-05-17T08:16:14.155Z,1.87
2023-05-17T08:18:44.292Z,2.30
2023-05-17T08:21:12.144Z,2.00
2023-05-17T08:23:39.958Z,1.80
2023-05-17T08:26:07.614Z,1.63
2023-05-17T08:28:35.218Z,1.20
2023-05-17T08:31:04.113Z,1.87
2023-05-17T08:33:31.861Z,1.90
2023-05-17T08:36:02.944Z,1.70
2023-05-17T08:38:30.457Z,2.20
2023-05-17T08:40:59.780Z,1.50
2023-05-17T08:43:28.034Z,2.30
2023-05-17T08:45:57.796Z,2.73
2023-05-17T08:48:26.437Z,1.77
2023-05-17T08:50:55.449Z,1.70
2023-05-17T08:53:25.120Z,1.47
2023-05-17T08:55:55.556Z,1.80
2023-05-17T08:58:41.100Z,2.00
2023-05-17T09:01:19.953Z,2.00
2023-05-17T09:03:49.630Z,2.07
2023-05-17T09:06:18.474Z,1.73
2023-05-17T09:08:48.199Z,1.70
2023-05-17T09:11:25.782Z,1.70
2023-05-17T09:13:53.461Z,1.70
2023-05-17T09:16:22.218Z,1.20
2023-05-17T09:18:55.266Z,2.03
2023-05-17T09:21:23.629Z,1.70
2023-05-17T09:24:04.892Z,1.87
2023-05-17T09:26:41.338Z,1.43
2023-05-17T09:29:10.280Z,1.60
2023-05-17T09:31:38.301Z,2.47
2023-05-17T09:34:07.171Z,2.37
2023-05-17T09:36:37.117Z,1.70
2023-05-17T09:39:11.884Z,1.47
2023-05-17T09:41:45.090Z,1.70
2023-05-17T09:44:23.551Z,1.87
2023-05-17T09:46:51.554Z,1.63
2023-05-17T09:49:19.154Z,2.03
2023-05-17T09:51:48.402Z,2.30
2023-05-17T09:54:17.615Z,1.70
2023-05-17T09:56:45.256Z,1.47
2023-05-17T09:59:13.813Z,1.60
2023-05-17T10:01:42.644Z,2.13
2023-05-17T10:04:11.653Z,1.77
2023-05-17T10:06:46.542Z,2.20
2023-05-17T10:09:18.547Z,1.73
2023-05-17T10:11:47.989Z,2.30
2023-05-17T10:14:19.050Z,2.13
2023-05-17T10:16:46.866Z,1.60
2023-05-17T10:19:14.576Z,2.03
2023-05-17T10:21:42.788Z,1.60
2023-05-17T10:24:11.235Z,1.50
2023-05-17T10:26:40.535Z,2.00
2023-05-17T10:29:08.564Z,2.27
2023-05-17T10:31:36.414Z,1.70
2023-05-17T10:34:06.530Z,1.90
2023-05-17T10:36:35.087Z,1.77
2023-05-17T10:39:02.972Z,2.20
2023-05-17T10:41:33.602Z,1.50
2023-05-17T10:44:04.758Z,2.23
2023-05-17T10:46:32.512Z,1.37
2023-05-17T10:49:01.971Z,1.90
2023-05-17T10:51:32.982Z,2.00
2023-05-17T10:54:11.567Z,2.20
2023-05-17T10:56:43.224Z,1.50
2023-05-17T10:59:19.807Z,1.80
2023-05-17T11:02:01.480Z,2.40
2023-05-17T11:04:33.809Z,2.03
2023-05-17T11:07:29.529Z,2.00
2023-05-17T11:10:06.297Z,1.83
2023-05-17T11:12:38.563Z,2.10
2023-05-17T11:15:10.923Z,1.50
2023-05-17T11:17:50.817Z,2.07
2023-05-17T11:20:33.008Z,1.87
2023-05-17T11:23:04.316Z,1.70
2023-05-17T11:25:33.051Z,1.50
2023-05-17T11:28:00.871Z,2.50
2023-05-17T11:30:31.567Z,2.20
2023-05-17T11:33:01.634Z,1.90
2023-05-17T11:35:31.248Z,1.50
2023-05-17T11:38:15.486Z,1.70
2023-05-17T11:40:43.577Z,1.63
2023-05-17T11:43:13.052Z,2.10
2023-05-17T11:45:44.212Z,1.57
2023-05-17T11:48:13.024Z,1.80
2023-05-17T11:50:41.493Z,1.77
2023-05-17T11:53:10.063Z,1.40
2023-05-17T11:55:40.103Z,1.70
2023-05-17T11:58:09.146Z,1.43
2023-05-17T12:00:37.515Z,1.53
2023-05-17T12:03:22.908Z,1.30
2023-05-17T12:05:51.593Z,1.50
2023-05-17T12:08:20.802Z,1.57
2023-05-17T12:10:50.581Z,1.50
2023-05-17T12:13:18.482Z,1.80
2023-05-17T12:15:46.946Z,1.30
2023-05-17T12:18:15.021Z,1.53
2023-05-17T12:20:56.290Z,1.20
2023-05-17T12:23:28.758Z,1.60
2023-05-17T12:26:07.320Z,1.00
2023-05-17T12:28:35.635Z,1.47
2023-05-17T12:31:04.486Z,3.20
2023-05-17T12:33:33.062Z,1.30
2023-05-17T12:36:03.001Z,1.10
2023-05-17T12:38:33.195Z,1.23
2023-05-17T12:41:02.303Z,1.17
2023-05-17T12:43:31.675Z,1.00
2023-05-17T12:46:09.728Z,1.63
2023-05-17T12:48:37.906Z,1.20
2023-05-17T12:51:14.226Z,1.10
2023-05-17T12:53:43.216Z,1.17
2023-05-17T12:56:16.455Z,1.33
2023-05-17T12:58:44.067Z,1.43
2023-05-17T13:01:14.450Z,1.07
2023-05-17T13:03:42.450Z,1.30
2023-05-17T13:06:11.121Z,2.40
2023-05-17T13:08:41.262Z,1.30
2023-05-17T13:11:12.247Z,1.27
2023-05-17T13:13:40.606Z,1.20
2023-05-17T13:16:09.066Z,1.47
2023-05-17T13:18:50.428Z,1.20
2023-05-17T13:21:19.475Z,1.23
2023-05-17T13:23:50.527Z,2.67
2023-05-17T13:26:19.045Z,1.57
2023-05-17T13:28:46.725Z,1.60
2023-05-17T13:31:14.461Z,2.60
2023-05-17T13:33:42.206Z,1.37
2023-05-17T13:36:10.111Z,2.30
2023-05-17T13:38:37.621Z,1.50
2023-05-17T13:41:09.309Z,1.50
2023-05-17T13:43:37.081Z,1.27
2023-05-17T13:46:04.618Z,1.60
2023-05-17T13:48:32.332Z,1.80
2023-05-17T13:51:00.478Z,1.30
2023-05-17T13:53:28.091Z,1.70
2023-05-17T13:55:55.602Z,1.63
2023-05-17T13:58:24.440Z,1.50
2023-05-17T14:00:51.982Z,1.90
2023-05-17T14:03:19.607Z,1.87
2023-05-17T14:05:49.708Z,1.80
2023-05-17T14:08:17.577Z,2.23
2023-05-17T14:10:45.214Z,1.43
2023-05-17T14:13:13.137Z,1.20
2023-05-17T14:15:42.108Z,1.50
2023-05-17T14:18:10.556Z,1.83
2023-05-17T14:20:38.155Z,1.90
2023-05-17T14:23:05.950Z,1.17
2023-05-17T14:25:33.662Z,1.40
2023-05-17T14:28:01.306Z,1.70
2023-05-17T14:30:28.954Z,1.67
2023-05-17T14:32:58.641Z,1.20
2023-05-17T14:35:26.503Z,1.80
2023-05-17T14:37:54.017Z,2.03
2023-05-17T14:40:21.738Z,1.37
2023-05-17T14:42:49.520Z,1.80
2023-05-17T14:45:17.061Z,1.47
2023-05-17T14:47:44.589Z,1.13
2023-05-17T14:50:13.499Z,1.13
2023-05-17T14:52:41.118Z,1.97
2023-05-17T14:55:09.790Z,1.87
2023-05-17T14:57:37.397Z,1.27
2023-05-17T15:00:10.309Z,2.17
2023-05-17T15:02:37.978Z,1.13
2023-05-17T15:05:06.144Z,1.80
2023-05-17T15:07:35.305Z,1.97
2023-05-17T15:10:04.183Z,1.40
2023-05-17T15:12:31.929Z,1.40
2023-05-17T15:14:59.559Z,1.50
2023-05-17T15:17:27.955Z,1.67
2023-05-17T15:19:55.652Z,1.77
2023-05-17T15:22:24.070Z,1.30
2023-05-17T15:24:54.183Z,1.23
2023-05-17T15:27:21.776Z,1.47
2023-05-17T15:29:49.282Z,1.00
2023-05-17T15:32:16.919Z,1.63
2023-05-17T15:34:45.040Z,1.40
2023-05-17T15:37:12.589Z,1.40
2023-05-17T15:39:40.169Z,1.70
2023-05-17T15:42:09.047Z,1.23
2023-05-17T15:44:36.562Z,1.90
2023-05-17T15:47:04.223Z,1.37
2023-05-17T15:49:31.794Z,1.50
2023-05-17T15:51:59.424Z,1.43
2023-05-17T15:54:26.999Z,1.33
2023-05-17T15:56:54.554Z,2.07
2023-05-17T15:59:23.413Z,1.87
2023-05-17T16:01:50.924Z,1.50
2023-05-17T16:04:18.520Z,1.27
2023-05-17T16:06:46.174Z,1.67
2023-05-17T16:09:14.401Z,1.30
2023-05-17T16:11:41.917Z,0.97
2023-05-17T16:14:09.640Z,1.90
2023-05-17T16:16:38.484Z,1.87
2023-05-17T16:19:06.590Z,1.53
2023-05-17T16:21:35.508Z,1.60
2023-05-17T16:24:04.121Z,1.70
2023-05-17T16:26:31.650Z,1.27
2023-05-17T16:28:59.184Z,1.07
2023-05-17T16:31:26.722Z,1.60
2023-05-17T16:33:55.716Z,1.43
2023-05-17T16:36:24.361Z,1.93
2023-05-17T16:38:52.533Z,1.63
2023-05-17T16:41:20.063Z,2.50
2023-05-17T16:43:47.684Z,1.43
2023-05-17T16:46:15.294Z,1.57
2023-05-17T16:48:42.800Z,1.90
2023-05-17T16:51:11.677Z,1.63
2023-05-17T16:53:39.197Z,1.60
2023-05-17T16:56:06.991Z,1.40
2023-05-17T16:58:34.654Z,1.50
2023-05-17T17:01:03.104Z,1.20
2023-05-17T17:03:30.786Z,2.10
2023-05-17T17:05:58.384Z,1.87
2023-05-17T17:08:27.212Z,2.30
2023-05-17T17:10:54.730Z,1.40
2023-05-17T17:13:22.242Z,1.40
2023-05-17T17:15:50.987Z,1.30
2023-05-17T17:18:19.560Z,3.07
2023-05-17T17:21:14.845Z,2.13
2023-05-17T17:23:44.332Z,1.33
2023-05-17T17:26:12.172Z,1.30
2023-05-17T17:28:39.761Z,1.50
2023-05-17T17:31:07.270Z,1.60
2023-05-17T17:33:35.144Z,1.17
2023-05-17T17:36:03.100Z,1.90
2023-05-17T17:38:30.677Z,1.50
2023-05-17T17:40:59.488Z,1.17
2023-05-17T17:43:27.026Z,2.13
2023-05-17T17:45:54.546Z,1.37
2023-05-17T17:48:22.037Z,1.60
2023-05-17T17:50:49.547Z,1.47
2023-05-17T17:53:17.326Z,1.60
2023-05-17T17:55:44.818Z,1.73
2023-05-17T17:58:13.688Z,1.43
2023-05-17T18:00:41.359Z,1.53
2023-05-17T18:03:09.070Z,1.30
2023-05-17T18:05:36.627Z,1.43
2023-05-17T18:08:04.247Z,1.30
2023-05-17T18:10:32.090Z,1.43
2023-05-17T18:12:59.716Z,1.57
2023-05-17T18:15:28.665Z,2.10
2023-05-17T18:17:56.938Z,1.47
2023-05-17T18:20:26.173Z,1.30
2023-05-17T18:22:53.749Z,1.67
2023-05-17T18:25:22.720Z,1.13
2023-05-17T18:27:50.480Z,1.97
2023-05-17T18:30:18.437Z,2.20
2023-05-17T18:32:47.520Z,1.57
2023-05-17T18:35:15.170Z,1.67
2023-05-17T18:37:42.664Z,1.47
2023-05-17T18:40:11.050Z,1.27
2023-05-17T18:42:38.941Z,2.00
2023-05-17T18:45:07.780Z,2.03
2023-05-17T18:47:35.659Z,2.67
2023-05-17T18:50:04.686Z,3.20
2023-05-17T18:52:32.222Z,1.93
2023-05-17T18:54:59.790Z,1.47
2023-05-17T18:57:27.471Z,1.93
2023-05-17T18:59:55.143Z,1.73
2023-05-17T19:02:22.735Z,1.10
2023-05-17T19:04:50.344Z,1.80
2023-05-17T19:07:19.198Z,1.30
2023-05-17T19:09:46.797Z,2.07
2023-05-17T19:12:14.349Z,1.27
2023-05-17T19:14:41.901Z,1.53
2023-05-17T19:17:10.468Z,1.67
2023-05-17T19:19:38.094Z,1.30
2023-05-17T19:22:06.017Z,1.43
2023-05-17T19:24:35.638Z,1.27
2023-05-17T19:27:03.219Z,1.40
2023-05-17T19:29:32.528Z,2.17
2023-05-17T19:32:00.101Z,1.73
2023-05-17T19:34:27.651Z,1.27
2023-05-17T19:36:55.180Z,2.10
2023-05-17T19:39:22.683Z,1.60
2023-05-17T19:41:51.531Z,1.17
2023-05-17T19:44:19.058Z,1.97
2023-05-17T19:46:49.706Z,1.53
2023-05-17T19:49:17.545Z,1.10
2023-05-17T19:51:46.057Z,1.70
2023-05-17T19:54:13.566Z,1.70
2023-05-17T19:56:41.120Z,1.77
2023-05-17T19:59:10.007Z,1.50
2023-05-17T20:01:37.752Z,1.57
2023-05-17T20:04:05.648Z,2.10
2023-05-17T20:06:33.201Z,1.50
2023-05-17T20:09:00.803Z,1.37
2023-05-17T20:11:28.342Z,0.90
2023-05-17T20:13:55.864Z,1.37
2023-05-17T20:16:27.952Z,1.50
2023-05-17T20:18:57.925Z,1.60
2023-05-17T20:21:26.292Z,1.70
2023-05-17T20:24:00.752Z,1.50
2023-05-17T20:26:31.690Z,2.00
2023-05-17T20:28:59.917Z,1.40
2023-05-17T20:31:28.837Z,1.63
2023-05-17T20:33:56.485Z,1.80
2023-05-17T20:36:23.988Z,1.20
2023-05-17T20:38:51.558Z,2.20
2023-05-17T20:41:19.084Z,2.13
2023-05-17T20:43:49.597Z,3.53
2023-05-17T20:46:18.325Z,1.20
2023-05-17T20:48:48.363Z,1.50
2023-05-17T20:51:17.581Z,1.87
2023-05-17T20:53:46.251Z,1.50
2023-05-17T20:56:15.056Z,2.20
2023-05-17T20:58:42.605Z,1.43
2023-05-17T21:01:10.167Z,1.67
2023-05-17T21:03:39.726Z,1.07
2023-05-17T21:06:08.982Z,1.50
2023-05-17T21:08:36.635Z,2.57
2023-05-17T21:11:04.191Z,1.43
2023-05-17T21:13:31.895Z,1.57
2023-05-17T21:15:59.479Z,2.00
2023-05-17T21:18:27.019Z,2.53
2023-05-17T21:20:55.978Z,1.53
2023-05-17T21:23:24.826Z,2.20
2023-05-17T21:25:52.423Z,1.70
2023-05-17T21:28:19.931Z,1.53
2023-05-17T21:30:47.490Z,2.47
2023-05-17T21:33:15.128Z,1.90
2023-05-17T21:35:42.662Z,4.27
2023-05-17T21:38:10.282Z,4.13
2023-05-17T21:40:39.210Z,2.30
2023-05-17T21:43:06.787Z,1.90
2023-05-17T21:45:34.436Z,2.10
2023-05-17T21:48:01.983Z,1.80
2023-05-17T21:50:30.848Z,2.10
2023-05-17T21:52:58.741Z,1.93
2023-05-17T21:55:28.329Z,2.10
2023-05-17T21:57:58.971Z,2.20
2023-05-17T22:00:28.790Z,2.80
2023-05-17T22:02:56.604Z,1.77
2023-05-17T22:05:24.276Z,2.07
2023-05-17T22:07:51.781Z,2.10
2023-05-17T22:10:20.581Z,2.33
2023-05-17T22:12:50.083Z,2.00
2023-05-17T22:15:19.933Z,2.37
2023-05-17T22:17:51.548Z,2.07
2023-05-17T22:20:23.405Z,2.60
2023-05-17T22:22:51.170Z,1.80
2023-05-17T22:25:19.024Z,1.87
2023-05-17T22:27:46.608Z,1.77
2023-05-17T22:30:14.615Z,1.70
2023-05-17T22:32:43.449Z,1.60
2023-05-17T22:35:11.165Z,1.67
2023-05-17T22:37:41.274Z,1.93
2023-05-17T22:40:10.651Z,1.70
2023-05-17T22:42:38.210Z,2.17
2023-05-17T22:45:06.298Z,2.87
2023-05-17T22:47:34.197Z,2.10
2023-05-17T22:50:03.180Z,2.03
2023-05-17T22:52:30.694Z,2.37
2023-05-17T22:54:58.223Z,1.67
2023-05-17T22:57:25.768Z,1.77
2023-05-17T22:59:53.280Z,2.40
2023-05-17T23:02:21.092Z,1.60
2023-05-17T23:04:48.613Z,1.60
2023-05-17T23:07:17.901Z,1.97
2023-05-17T23:09:45.405Z,1.53
2023-05-17T23:12:14.469Z,2.07
2023-05-17T23:14:42.430Z,1.77
2023-05-17T23:17:10.368Z,2.00
2023-05-17T23:19:38.036Z,1.80
2023-05-17T23:22:06.319Z,2.00
2023-05-17T23:24:38.509Z,2.20
2023-05-17T23:27:10.065Z,2.60
2023-05-17T23:29:41.254Z,1.87
2023-05-17T23:32:08.911Z,1.80
2023-05-17T23:34:36.635Z,1.80
2023-05-17T23:37:04.248Z,2.10
2023-05-17T23:39:31.792Z,1.87
2023-05-17T23:42:00.729Z,2.57
2023-05-17T23:44:28.355Z,2.97
2023-05-17T23:46:56.219Z,2.00
2023-05-17T23:49:23.898Z,2.43
2023-05-17T23:51:51.640Z,1.93
2023-05-17T23:54:19.137Z,1.57
2023-05-17T23:56:46.682Z,2.73
2023-05-17T23:59:15.693Z,1.50
